Time;durP1;ratioP1;P1;durP2;ratioP2;P2;SDS_P1;SDS_P2;PMS_P1;PMS_P2;Temp;Humidity;BMP_temperature;BMP_pressure;BME280_temperature;BME280_humidity;BME280_pressure;Samples;Min_cycle;Max_cycle;Signal;HPM_P1;HPM_P2
2022/07/14 00:00:16;;;;;;;2.60;0.60;;;;;;;20.89;54.99;100171.19;106219;1274;22633;-69
2022/07/14 00:03:04;;;;;;;2.50;0.60;;;;;;;20.90;54.76;100171.61;106234;1274;22746;-70
2022/07/14 00:05:32;;;;;;;2.40;0.80;;;;;;;20.91;54.92;100166.17;106181;1274;22779;-69
2022/07/14 00:08:01;;;;;;;5.20;1.00;;;;;;;20.92;54.79;100166.55;106119;1274;24342;-70
2022/07/14 00:10:30;;;;;;;3.40;0.70;;;;;;;20.92;54.80;100169.92;106328;1274;25334;-70
2022/07/14 00:12:59;;;;;;;4.20;0.60;;;;;;;20.90;54.70;100171.61;106122;1274;22552;-69
2022/07/14 00:15:30;;;;;;;2.50;0.70;;;;;;;20.89;54.70;100167.52;106176;1275;22579;-70
2022/07/14 00:17:59;;;;;;;2.40;0.60;;;;;;;20.87;54.64;100167.35;106203;1275;25455;-70
2022/07/14 00:20:28;;;;;;;3.80;0.70;;;;;;;20.87;54.66;100169.63;106177;1274;22595;-70
2022/07/14 00:22:57;;;;;;;4.40;0.70;;;;;;;20.87;54.60;100165.50;106283;1274;22588;-70
2022/07/14 00:25:26;;;;;;;3.10;0.70;;;;;;;20.86;54.58;100164.58;106279;1274;22608;-70
2022/07/14 00:27:56;;;;;;;1.90;0.60;;;;;;;20.86;54.07;100169.90;106227;1275;24319;-69
2022/07/14 00:30:24;;;;;;;6.90;0.70;;;;;;;20.85;54.19;100173.50;106276;1274;22641;-72
2022/07/14 00:32:54;;;;;;;3.20;0.80;;;;;;;20.84;54.10;100172.23;106088;1274;22587;-69
2022/07/14 00:35:23;;;;;;;3.30;0.70;;;;;;;20.84;53.75;100170.79;106174;1274;24312;-69
2022/07/14 00:37:51;;;;;;;5.70;0.70;;;;;;;20.84;53.48;100164.48;106101;1274;23058;-70
2022/07/14 00:40:20;;;;;;;4.40;0.70;;;;;;;20.86;53.14;100162.23;106061;1273;24285;-70
2022/07/14 00:42:51;;;;;;;3.50;0.60;;;;;;;20.88;52.89;100160.58;106123;1274;24922;-70
2022/07/14 00:45:22;;;;;;;1.90;0.50;;;;;;;20.92;52.64;100161.26;106222;1274;22570;-70
2022/07/14 00:47:50;;;;;;;4.00;0.60;;;;;;;20.96;52.38;100158.16;106179;1274;23428;-70
2022/07/14 00:50:20;;;;;;;4.10;0.60;;;;;;;21.02;51.98;100162.46;106133;1274;24303;-70
2022/07/14 00:52:50;;;;;;;3.30;0.50;;;;;;;21.10;51.99;100156.20;106128;1274;23114;-70
2022/07/14 00:55:19;;;;;;;3.50;0.60;;;;;;;21.17;51.74;100158.27;106026;1274;24242;-70
2022/07/14 00:57:50;;;;;;;5.30;0.60;;;;;;;21.25;51.66;100154.09;105991;1274;22647;-70
2022/07/14 01:00:19;;;;;;;3.90;0.60;;;;;;;21.30;51.46;100154.63;106168;1274;22556;-70
2022/07/14 01:02:51;;;;;;;6.80;0.60;;;;;;;21.35;51.23;100153.84;106211;1274;25621;-71
2022/07/14 01:05:20;;;;;;;4.30;0.60;;;;;;;21.41;51.06;100155.13;105947;1275;22713;-69
2022/07/14 01:07:48;;;;;;;2.50;0.50;;;;;;;21.46;50.92;100156.19;106109;1274;22580;-70
2022/07/14 01:10:17;;;;;;;4.80;0.60;;;;;;;21.49;50.82;100157.07;106152;1274;24241;-70
2022/07/14 01:12:46;;;;;;;4.20;0.60;;;;;;;21.53;50.55;100155.17;106080;1274;24322;-69
2022/07/14 01:15:17;;;;;;;1.40;0.50;;;;;;;21.59;50.32;100150.68;106158;1274;25380;-69
2022/07/14 01:17:47;;;;;;;4.10;0.60;;;;;;;21.65;50.13;100151.59;106137;1274;24425;-70
2022/07/14 01:20:17;;;;;;;4.20;0.60;;;;;;;21.69;50.11;100149.80;106091;1274;22660;-71
2022/07/14 01:22:47;;;;;;;4.10;0.70;;;;;;;21.73;49.88;100150.63;106151;1274;24306;-70
2022/07/14 01:25:16;;;;;;;2.40;0.60;;;;;;;21.76;49.79;100150.60;106231;1274;25271;-70
2022/07/14 01:27:46;;;;;;;2.40;0.60;;;;;;;21.79;49.61;100154.55;106161;1274;22596;-69
2022/07/14 01:30:15;;;;;;;3.20;0.60;;;;;;;21.81;49.46;100155.70;106238;1274;22701;-70
2022/07/14 01:32:45;;;;;;;3.10;0.80;;;;;;;21.80;49.51;100151.48;106129;1274;22558;-71
2022/07/14 01:35:13;;;;;;;5.00;0.70;;;;;;;21.78;49.46;100150.65;106249;1274;25500;-70
2022/07/14 01:37:42;;;;;;;3.60;0.40;;;;;;;21.77;49.26;100153.91;106298;1273;22774;-70
2022/07/14 01:40:12;;;;;;;4.90;0.70;;;;;;;21.75;49.36;100152.94;106214;1274;26277;-69
2022/07/14 01:42:41;;;;;;;3.50;0.80;;;;;;;21.74;49.23;100156.49;106231;1274;27769;-70
2022/07/14 01:45:12;;;;;;;6.70;0.50;;;;;;;21.71;49.25;100154.81;106247;1274;24283;-70
2022/07/14 01:47:41;;;;;;;3.70;0.50;;;;;;;21.67;49.27;100151.30;106163;1274;22794;-70
2022/07/14 01:50:13;;;;;;;3.40;0.60;;;;;;;21.66;49.21;100150.30;106205;1274;22633;-70
2022/07/14 01:52:41;;;;;;;4.70;0.70;;;;;;;21.66;49.05;100149.29;106188;1274;27005;-71
2022/07/14 01:55:11;;;;;;;2.60;0.60;;;;;;;21.65;49.08;100142.13;106205;1274;24296;-71
2022/07/14 01:57:39;;;;;;;3.90;0.60;;;;;;;21.64;49.05;100142.19;106260;1274;22689;-72
2022/07/14 02:00:11;;;;;;;4.10;0.60;;;;;;;21.63;49.12;100152.30;106130;1274;22665;-69
2022/07/14 02:02:40;;;;;;;4.80;0.80;;;;;;;21.61;49.14;100156.70;106249;1274;23574;-70
2022/07/14 02:05:10;;;;;;;2.90;0.50;;;;;;;21.58;49.13;100164.54;106262;1274;22485;-70
2022/07/14 02:07:38;;;;;;;;;;;;;;;21.54;49.14;100170.30;106215;1275;25306;-70
2022/07/14 02:12:56;;;;;;;5.60;0.70;;;;;;;21.47;49.13;100180.42;106094;1274;22620;-70
2022/07/14 02:15:28;;;;;;;6.30;0.70;;;;;;;21.44;49.32;100179.69;106135;1274;25400;-69
2022/07/14 02:17:57;;;;;;;4.60;0.70;;;;;;;21.41;49.35;100183.00;106163;1274;23655;-69
2022/07/14 02:20:26;;;;;;;2.60;0.70;;;;;;;21.39;49.25;100184.81;105677;1274;22633;-69
2022/07/14 02:22:55;;;;;;;4.40;0.80;;;;;;;21.37;49.20;100184.04;105934;1274;24318;-70
2022/07/14 02:25:26;;;;;;;3.30;0.70;;;;;;;21.34;49.13;100187.23;106279;1273;22585;-70
2022/07/14 02:27:55;;;;;;;5.80;0.80;;;;;;;21.29;49.18;100190.02;106222;1274;22567;-69
2022/07/14 02:30:24;;;;;;;2.50;0.60;;;;;;;21.24;49.28;100193.00;106204;1274;23021;-69
2022/07/14 02:32:52;;;;;;;3.60;0.80;;;;;;;21.18;49.43;100193.05;106158;1274;22634;-70
2022/07/14 02:35:23;;;;;;;4.80;0.80;;;;;;;21.11;49.47;100189.21;106202;1274;23092;-70
2022/07/14 02:37:51;;;;;;;4.60;0.60;;;;;;;21.04;49.59;100194.33;106241;1273;24572;-70
2022/07/14 02:40:20;;;;;;;4.20;1.20;;;;;;;20.98;49.57;100199.40;106135;1273;22788;-69
2022/07/14 02:42:49;;;;;;;5.80;0.80;;;;;;;20.93;49.62;100204.10;106130;1273;22583;-70
2022/07/14 02:45:17;;;;;;;6.70;0.90;;;;;;;20.86;49.74;100210.51;106216;1273;23151;-69
2022/07/14 02:47:46;;;;;;;4.10;1.20;;;;;;;20.76;50.02;100210.59;106180;1274;23096;-70
2022/07/14 02:50:15;;;;;;;6.60;1.00;;;;;;;20.66;50.12;100211.08;106168;1274;25539;-70
2022/07/14 02:52:45;;;;;;;3.10;0.70;;;;;;;20.57;50.38;100208.55;106138;1274;22678;-70
2022/07/14 02:55:12;;;;;;;;;;;;;;;20.47;50.58;100208.62;106452;1274;22532;-70
2022/07/14 02:57:41;;;;;;;3.70;0.90;;;;;;;20.37;50.75;100206.56;106271;1273;22599;-69
2022/07/14 03:00:13;;;;;;;5.80;0.70;;;;;;;20.31;50.92;100204.30;106356;1273;22604;-69
2022/07/14 03:02:42;;;;;;;7.70;0.90;;;;;;;20.25;51.15;100202.55;106345;1273;23488;-70
2022/07/14 03:05:11;;;;;;;4.30;1.10;;;;;;;20.21;51.35;100204.12;106121;1273;22577;-70
2022/07/14 03:07:39;;;;;;;5.30;0.90;;;;;;;20.16;51.44;100207.46;106158;1274;25660;-70
2022/07/14 03:10:09;;;;;;;3.70;0.70;;;;;;;20.13;51.61;100211.14;102230;1274;5473203;-70
2022/07/14 03:12:39;;;;;;;4.70;0.80;;;;;;;20.12;51.90;100209.23;106429;1274;24272;-69
2022/07/14 03:15:09;;;;;;;4.20;0.80;;;;;;;20.08;51.97;100206.57;106155;1273;23438;-70
2022/07/14 03:17:38;;;;;;;3.80;0.70;;;;;;;20.06;52.24;100208.16;106082;1273;25742;-69
2022/07/14 03:20:09;;;;;;;5.50;1.00;;;;;;;20.01;52.62;100206.28;106129;1273;24678;-69
2022/07/14 03:22:38;;;;;;;3.90;0.80;;;;;;;19.98;52.86;100208.12;106287;1274;25442;-70
2022/07/14 03:25:09;;;;;;;6.60;0.90;;;;;;;19.90;52.92;100212.02;106287;1273;22560;-70
2022/07/14 03:27:40;;;;;;;4.70;0.80;;;;;;;19.83;52.99;100222.26;106294;1273;22627;-70
2022/07/14 03:30:10;;;;;;;7.40;1.10;;;;;;;19.77;53.00;100230.25;106144;1273;23437;-69
2022/07/14 03:32:39;;;;;;;3.00;0.90;;;;;;;19.74;53.14;100232.73;106142;1273;22632;-70
2022/07/14 03:35:09;;;;;;;5.90;1.00;;;;;;;19.73;53.47;100233.73;106183;1273;23043;-70
2022/07/14 03:37:38;;;;;;;4.30;0.90;;;;;;;19.73;53.58;100234.34;106294;1273;25412;-69
2022/07/14 03:40:10;;;;;;;8.90;1.40;;;;;;;19.75;54.12;100233.09;106202;1273;24219;-69
2022/07/14 03:42:38;;;;;;;6.40;1.00;;;;;;;19.76;54.43;100237.34;106397;1273;22632;-70
2022/07/14 03:45:08;;;;;;;7.20;0.90;;;;;;;19.76;54.49;100241.60;106177;1273;23070;-70
2022/07/14 03:47:42;;;;;;;;;;;;;;;19.75;54.45;100245.08;106263;1273;22607;-69
2022/07/14 03:50:11;;;;;;;3.60;0.90;;;;;;;19.74;54.72;100255.17;106238;1274;22784;-69
2022/07/14 03:52:40;;;;;;;3.20;1.00;;;;;;;19.74;55.01;100266.77;106184;1273;25477;-70
2022/07/14 03:55:09;;;;;;;4.50;1.10;;;;;;;19.74;55.05;100271.25;106190;1273;24237;-70
2022/07/14 03:57:38;;;;;;;2.90;0.80;;;;;;;19.74;55.10;100276.92;106208;1273;22627;-69
2022/07/14 04:00:09;;;;;;;4.70;0.90;;;;;;;19.75;55.13;100284.12;106287;1273;23320;-69
2022/07/14 04:02:38;;;;;;;5.30;1.20;;;;;;;19.75;55.26;100288.02;105823;1273;26251;-70
2022/07/14 04:05:10;;;;;;;5.30;1.20;;;;;;;19.76;55.29;100296.86;106103;1273;22708;-69
2022/07/14 04:07:39;;;;;;;5.30;1.50;;;;;;;19.78;55.54;100301.16;106055;1274;22624;-69
2022/07/14 04:10:09;;;;;;;4.50;1.20;;;;;;;19.79;55.74;100309.34;106111;1273;22680;-70
2022/07/14 04:12:37;;;;;;;3.80;1.00;;;;;;;19.81;55.74;100313.93;106077;1274;25398;-70
2022/07/14 04:15:08;;;;;;;4.60;1.00;;;;;;;19.82;55.73;100321.33;106109;1273;23210;-70
2022/07/14 04:17:36;;;;;;;5.80;1.10;;;;;;;19.82;55.82;100319.31;106440;1273;25842;-70
2022/07/14 04:20:07;;;;;;;4.50;0.90;;;;;;;19.83;55.84;100317.18;106157;1273;22704;-69
2022/07/14 04:22:37;;;;;;;4.40;1.00;;;;;;;19.84;55.96;100315.13;106129;1274;22688;-69
2022/07/14 04:25:09;;;;;;;4.30;0.80;;;;;;;19.84;56.02;100325.73;106197;1273;23694;-70
2022/07/14 04:27:37;;;;;;;4.80;0.90;;;;;;;19.84;56.14;100326.61;106200;1274;22675;-70
2022/07/14 04:30:08;;;;;;;4.20;1.00;;;;;;;19.84;56.21;100329.05;106175;1273;24432;-70
2022/07/14 04:32:37;;;;;;;3.90;1.00;;;;;;;19.86;56.21;100332.64;106247;1273;22718;-70
2022/07/14 04:35:07;;;;;;;4.10;0.80;;;;;;;19.86;56.35;100325.20;106199;1274;24323;-68
2022/07/14 04:37:36;;;;;;;5.70;1.10;;;;;;;19.88;56.32;100327.31;105528;1274;23007;-69
2022/07/14 04:40:07;;;;;;;6.90;0.90;;;;;;;19.90;56.32;100326.86;106008;1273;22634;-70
2022/07/14 04:42:36;;;;;;;6.80;1.20;;;;;;;19.92;56.41;100324.13;106288;1273;25375;-69
2022/07/14 04:45:07;;;;;;;4.20;1.30;;;;;;;19.96;56.51;100320.52;106416;1273;22551;-70
2022/07/14 04:47:36;;;;;;;5.80;1.00;;;;;;;19.98;56.46;100315.69;106222;1273;22694;-69
2022/07/14 04:52:53;;;;;;;6.50;1.20;;;;;;;20.02;56.63;100334.92;106322;1274;26539;-70
2022/07/14 04:55:22;;;;;;;6.00;1.20;;;;;;;20.04;56.84;100331.90;106159;1273;22956;-69
2022/07/14 04:57:51;;;;;;;3.90;1.00;;;;;;;20.05;56.86;100325.83;106174;1273;25331;-69
2022/07/14 05:00:20;;;;;;;8.50;1.00;;;;;;;20.07;56.87;100325.81;106101;1273;22629;-69
2022/07/14 05:02:49;;;;;;;5.90;1.20;;;;;;;20.12;56.85;100324.91;105638;1273;24240;-71
2022/07/14 05:05:18;;;;;;;8.30;1.10;;;;;;;20.18;56.87;100324.59;105775;1273;22553;-69
2022/07/14 05:07:47;;;;;;;4.10;1.20;;;;;;;20.24;56.90;100322.91;105925;1273;24233;-69
2022/07/14 05:10:16;;;;;;;4.20;1.10;;;;;;;20.28;56.87;100325.21;106242;1273;22549;-71
2022/07/14 05:12:44;;;;;;;4.60;1.20;;;;;;;20.30;56.96;100331.71;106269;1273;22620;-70
2022/07/14 05:15:13;;;;;;;4.40;1.60;;;;;;;20.32;57.05;100332.98;106467;1273;23042;-70
2022/07/14 05:17:43;;;;;;;3.90;1.00;;;;;;;20.34;57.09;100342.52;106326;1273;24319;-69
2022/07/14 05:20:13;;;;;;;6.60;1.10;;;;;;;20.40;57.09;100344.66;106396;1273;22627;-70
2022/07/14 05:22:43;;;;;;;4.90;1.00;;;;;;;20.49;57.07;100345.63;105817;1273;22564;-70
2022/07/14 05:25:13;;;;;;;9.70;1.10;;;;;;;20.58;57.10;100346.33;105913;1273;22586;-70
2022/07/14 05:27:44;;;;;;;6.00;1.10;;;;;;;20.64;56.98;100349.91;105820;1273;22553;-70
2022/07/14 05:30:15;;;;;;;6.00;0.90;;;;;;;20.72;56.94;100350.95;106310;1273;24240;-70
2022/07/14 05:32:43;;;;;;;;;;;;;;;20.76;56.87;100353.05;106229;1273;25219;-69
2022/07/14 05:35:12;;;;;;;5.20;1.20;;;;;;;20.77;56.64;100360.22;106216;1273;22576;-70
2022/07/14 05:37:42;;;;;;;9.10;1.10;;;;;;;20.75;56.72;100354.93;106200;1273;24411;-69
2022/07/14 05:40:13;;;;;;;5.30;1.30;;;;;;;20.78;56.70;100357.98;105767;1273;22720;-70
2022/07/14 05:42:42;;;;;;;7.50;1.20;;;;;;;20.79;56.87;100362.10;105932;1273;22581;-69
2022/07/14 05:45:12;;;;;;;4.70;1.30;;;;;;;20.79;56.76;100361.61;105977;1273;25576;-70
2022/07/14 05:47:41;;;;;;;;;;;;;;;20.83;57.03;100364.38;105848;1273;25547;-69
2022/07/14 05:50:12;;;;;;;3.70;1.10;;;;;;;20.87;57.03;100369.70;106131;1273;22576;-69
2022/07/14 05:52:43;;;;;;;3.40;1.00;;;;;;;20.95;57.26;100374.13;105688;1273;22728;-70
2022/07/14 05:55:12;;;;;;;6.70;1.20;;;;;;;21.03;57.14;100378.05;105630;1273;22629;-69
2022/07/14 05:57:41;;;;;;;7.10;1.70;;;;;;;21.11;57.10;100384.81;106290;1273;24562;-69
2022/07/14 06:00:11;;;;;;;6.00;1.50;;;;;;;21.21;57.24;100387.02;106060;1274;22560;-69
2022/07/14 06:02:40;;;;;;;4.10;1.40;;;;;;;21.29;56.75;100383.77;106175;1274;22581;-69
2022/07/14 06:05:10;;;;;;;6.10;1.30;;;;;;;21.32;56.65;100384.75;106185;1273;24370;-69
2022/07/14 06:07:40;;;;;;;4.50;1.10;;;;;;;21.34;56.51;100378.88;106183;1273;22576;-70
2022/07/14 06:10:12;;;;;;;3.60;1.20;;;;;;;21.34;56.37;100377.94;106185;1273;22691;-70
2022/07/14 06:12:41;;;;;;;7.90;1.20;;;;;;;21.37;56.37;100378.77;106328;1273;24329;-71
2022/07/14 06:15:12;;;;;;;6.20;1.40;;;;;;;21.38;56.26;100373.52;106197;1273;24309;-69
2022/07/14 06:17:41;;;;;;;3.60;1.00;;;;;;;21.40;56.13;100376.45;106348;1273;22647;-70
2022/07/14 06:20:12;;;;;;;4.50;1.10;;;;;;;21.47;56.32;100377.48;106233;1273;22541;-70
2022/07/14 06:22:41;;;;;;;6.00;1.60;;;;;;;21.53;56.04;100375.23;106137;1274;25733;-70
2022/07/14 06:25:11;;;;;;;3.60;1.00;;;;;;;21.54;56.21;100371.65;106137;1274;25371;-70
2022/07/14 06:27:39;;;;;;;8.30;1.30;;;;;;;21.56;56.12;100368.45;106287;1273;24306;-70
2022/07/14 06:30:10;;;;;;;4.60;1.00;;;;;;;21.60;55.77;100371.89;106212;1273;22829;-70
2022/07/14 06:32:39;;;;;;;5.40;1.20;;;;;;;21.60;56.02;100369.33;106188;1273;22543;-70
2022/07/14 06:35:10;;;;;;;4.80;1.10;;;;;;;21.68;55.84;100370.95;105963;1274;22625;-69
2022/07/14 06:37:38;;;;;;;5.10;1.10;;;;;;;21.72;55.60;100365.84;106116;1274;24315;-69
2022/07/14 06:40:09;;;;;;;4.40;1.10;;;;;;;21.80;55.57;100362.81;106046;1275;22789;-69
2022/07/14 06:42:38;;;;;;;4.40;1.10;;;;;;;21.91;55.62;100362.40;106167;1273;22898;-69
2022/07/14 06:45:08;;;;;;;6.20;1.00;;;;;;;21.97;55.44;100359.72;106146;1273;22872;-69
2022/07/14 06:47:37;;;;;;;4.20;1.10;;;;;;;21.96;55.33;100363.09;106248;1273;22593;-70
2022/07/14 06:50:09;;;;;;;5.40;1.50;;;;;;;21.90;55.27;100361.80;106283;1273;24869;-70
2022/07/14 06:52:37;;;;;;;4.80;1.30;;;;;;;21.82;55.25;100356.62;106274;1273;23199;-70
2022/07/14 06:55:09;;;;;;;3.00;1.10;;;;;;;21.76;55.50;100353.38;106360;1273;24325;-70
2022/07/14 06:57:38;;;;;;;7.00;1.40;;;;;;;21.76;55.63;100354.73;106359;1273;22559;-70
2022/07/14 07:00:10;;;;;;;5.60;1.30;;;;;;;21.78;55.74;100357.29;105601;1273;22567;-69
2022/07/14 07:02:40;;;;;;;4.50;1.20;;;;;;;21.76;55.75;100359.33;105822;1273;25375;-69
2022/07/14 07:07:59;;;;;;;3.20;1.20;;;;;;;21.80;55.42;100357.64;106095;1274;22557;-70
2022/07/14 07:10:29;;;;;;;5.50;1.00;;;;;;;21.85;55.17;100354.96;106200;1273;22615;-69
2022/07/14 07:13:01;;;;;;;4.50;0.90;;;;;;;21.89;55.10;100349.47;106290;1273;22634;-69
2022/07/14 07:15:29;;;;;;;4.00;1.00;;;;;;;21.90;54.68;100345.16;106121;1273;22685;-69
2022/07/14 07:17:59;;;;;;;2.70;0.80;;;;;;;21.90;54.44;100345.79;106206;1273;24454;-69
2022/07/14 07:20:27;;;;;;;4.30;0.90;;;;;;;21.89;54.37;100347.14;106437;1273;22781;-69
2022/07/14 07:22:57;;;;;;;4.30;1.20;;;;;;;21.88;54.37;100341.80;106153;1273;23201;-70
2022/07/14 07:25:26;;;;;;;5.50;1.10;;;;;;;21.95;54.40;100342.36;106185;1273;24332;-70
2022/07/14 07:27:55;;;;;;;8.10;1.00;;;;;;;22.07;54.22;100342.91;106118;1273;23347;-69
2022/07/14 07:30:23;;;;;;;5.00;0.80;;;;;;;22.17;54.06;100340.23;106073;1273;23729;-69
2022/07/14 07:32:53;;;;;;;2.50;0.80;;;;;;;22.26;53.81;100332.85;106142;1273;22540;-69
2022/07/14 07:35:22;;;;;;;5.00;1.00;;;;;;;22.33;53.56;100333.34;106176;1273;23058;-69
2022/07/14 07:37:51;;;;;;;4.50;1.00;;;;;;;22.40;53.36;100334.27;106280;1273;24262;-69
2022/07/14 07:40:21;;;;;;;4.70;0.90;;;;;;;22.45;53.39;100337.73;105731;1273;24266;-69
2022/07/14 07:42:50;;;;;;;5.10;0.90;;;;;;;22.52;53.00;100332.86;105641;1273;25271;-72
2022/07/14 07:45:19;;;;;;;2.30;0.70;;;;;;;22.56;52.57;100332.88;105716;1273;22590;-70
2022/07/14 07:47:48;;;;;;;3.80;0.80;;;;;;;22.58;52.20;100330.67;106135;1273;22547;-70
2022/07/14 07:50:17;;;;;;;2.20;0.60;;;;;;;22.61;52.33;100324.20;106209;1273;22547;-70
2022/07/14 07:52:46;;;;;;;6.70;1.20;;;;;;;22.68;51.91;100329.38;106141;1273;24415;-69
2022/07/14 07:55:18;;;;;;;3.80;1.10;;;;;;;22.69;51.70;100344.07;106149;1273;24362;-70
2022/07/14 07:57:47;;;;;;;3.40;0.80;;;;;;;22.69;51.75;100344.17;106101;1273;22554;-70
2022/07/14 08:00:16;;;;;;;3.90;0.90;;;;;;;22.71;52.03;100343.50;106188;1273;22790;-70
2022/07/14 08:02:49;;;;;;;6.10;1.10;;;;;;;22.76;51.90;100345.35;106070;1273;26433;-72
2022/07/14 08:05:19;;;;;;;4.20;1.10;;;;;;;22.83;51.83;100348.23;106283;1273;22573;-70
2022/07/14 08:07:48;;;;;;;8.10;0.80;;;;;;;22.87;51.73;100353.48;106222;1273;22557;-69
2022/07/14 08:10:17;;;;;;;8.00;1.00;;;;;;;22.87;51.72;100352.69;106217;1273;24247;-69
2022/07/14 08:12:46;;;;;;;6.20;1.20;;;;;;;22.85;52.01;100352.60;106104;1273;22563;-69
2022/07/14 08:15:15;;;;;;;2.30;1.00;;;;;;;22.88;52.28;100350.50;106096;1273;22540;-69
2022/07/14 08:17:44;;;;;;;3.10;1.00;;;;;;;22.93;52.33;100349.12;106101;1273;22619;-69
2022/07/14 08:20:13;;;;;;;9.20;1.40;;;;;;;22.99;52.50;100347.62;106085;1273;22594;-71
2022/07/14 08:22:42;;;;;;;5.50;1.30;;;;;;;23.08;52.22;100343.05;106127;1273;22573;-69
2022/07/14 08:25:11;;;;;;;6.90;1.30;;;;;;;23.15;52.07;100337.81;106159;1273;22708;-70
2022/07/14 08:27:40;;;;;;;8.50;1.20;;;;;;;23.21;52.07;100330.69;106079;1273;25924;-69
2022/07/14 08:30:10;;;;;;;4.20;1.30;;;;;;;23.31;52.19;100325.06;106083;1273;25344;-70
2022/07/14 08:32:40;;;;;;;6.30;1.40;;;;;;;23.39;52.07;100323.73;106313;1273;22631;-70
2022/07/14 08:35:11;;;;;;;7.10;1.80;;;;;;;23.51;52.26;100327.86;106287;1273;22564;-69
2022/07/14 08:37:41;;;;;;;7.80;2.20;;;;;;;23.61;52.06;100327.84;106151;1273;22621;-69
2022/07/14 08:40:13;;;;;;;4.00;1.30;;;;;;;23.67;51.88;100335.10;106106;1273;23995;-70
2022/07/14 08:42:44;;;;;;;8.10;1.40;;;;;;;23.73;52.01;100334.12;106234;1273;23116;-69
2022/07/14 08:45:16;;;;;;;5.20;1.70;;;;;;;23.84;51.98;100326.07;106222;1273;24438;-70
2022/07/14 08:47:47;;;;;;;5.80;1.40;;;;;;;23.91;51.83;100319.35;106155;1273;25430;-69
2022/07/14 08:50:18;;;;;;;4.10;1.30;;;;;;;23.96;51.44;100324.23;106254;1273;22580;-69
2022/07/14 08:52:47;;;;;;;8.30;1.30;;;;;;;24.04;51.40;100322.42;106265;1273;22549;-70
2022/07/14 08:55:16;;;;;;;;;;;;;;;24.10;51.37;100321.15;106417;1273;24793;-69
2022/07/14 08:57:45;;;;;;;6.70;1.30;;;;;;;24.12;50.96;100319.32;106096;1273;24483;-70
2022/07/14 09:00:16;;;;;;;7.40;1.20;;;;;;;24.12;50.91;100317.59;106186;1273;23534;-69
2022/07/14 09:02:50;;;;;;;5.40;1.20;;;;;;;24.12;51.19;100308.29;106093;1273;22701;-70
2022/07/14 09:05:19;;;;;;;4.10;1.20;;;;;;;24.17;50.80;100308.48;106168;1274;22572;-69
2022/07/14 09:07:56;;;;;;;5.60;1.80;;;;;;;24.22;50.76;100306.68;106049;1273;24246;-69
2022/07/14 09:10:27;;;;;;;3.30;1.10;;;;;;;24.27;50.46;100305.33;106163;1273;25465;-70
2022/07/14 09:13:11;;;;;;;5.40;1.20;;;;;;;24.29;50.20;100300.33;106554;1273;22596;-69
2022/07/14 09:15:45;;;;;;;3.80;1.00;;;;;;;24.21;50.38;100294.77;106246;1273;22625;-70
2022/07/14 09:18:21;;;;;;;4.70;1.10;;;;;;;24.20;50.22;100297.55;106152;1273;25190;-70
2022/07/14 09:20:52;;;;;;;4.50;1.30;;;;;;;24.12;50.42;100292.52;106053;1273;24401;-69
2022/07/14 09:23:28;;;;;;;6.60;1.50;;;;;;;24.07;50.11;100296.48;106162;1273;22562;-69
2022/07/14 09:26:11;;;;;;;7.10;1.40;;;;;;;24.03;50.27;100296.23;106328;1273;24285;-69
2022/07/14 09:28:42;;;;;;;3.90;1.20;;;;;;;24.10;50.46;100295.02;106089;1273;22544;-70
2022/07/14 09:31:22;;;;;;;4.80;1.20;;;;;;;24.20;50.19;100290.19;106129;1273;25036;-69
2022/07/14 09:33:53;;;;;;;4.00;1.00;;;;;;;24.23;50.11;100285.27;106170;1273;24350;-70
2022/07/14 09:36:26;;;;;;;9.10;1.40;;;;;;;24.31;50.25;100285.94;106248;1273;24325;-69
2022/07/14 09:38:59;;;;;;;4.50;1.20;;;;;;;24.39;50.12;100293.02;106144;1273;22728;-70
2022/07/14 09:41:29;;;;;;;4.70;1.20;;;;;;;24.47;49.85;100290.84;106236;1273;22769;-69
2022/07/14 09:44:17;;;;;;;4.10;1.30;;;;;;;24.50;49.61;100288.55;106115;1273;22563;-70
2022/07/14 09:46:49;;;;;;;5.50;1.70;;;;;;;24.50;49.58;100284.29;106220;1273;22710;-70
2022/07/14 09:49:20;;;;;;;3.90;1.30;;;;;;;24.53;49.60;100279.55;106130;1273;22662;-70
2022/07/14 09:52:03;;;;;;;5.90;1.20;;;;;;;24.57;49.59;100288.08;106092;1273;25344;-70
2022/07/14 09:54:47;;;;;;;4.80;1.20;;;;;;;24.56;49.34;100286.44;106198;1273;24438;-70
2022/07/14 09:57:25;;;;;;;3.40;1.00;;;;;;;24.55;49.32;100285.75;106194;1273;22541;-70
2022/07/14 09:59:59;;;;;;;4.30;1.20;;;;;;;24.58;49.44;100277.48;106189;1273;22579;-70
2022/07/14 10:02:30;;;;;;;7.60;1.30;;;;;;;24.58;49.13;100279.65;106359;1273;24700;-70
2022/07/14 10:05:01;;;;;;;3.90;1.20;;;;;;;24.57;49.21;100273.23;106167;1273;22578;-69
2022/07/14 10:07:35;;;;;;;4.50;1.10;;;;;;;24.59;49.14;100266.48;106142;1273;22563;-70
2022/07/14 10:10:07;;;;;;;6.00;1.40;;;;;;;24.57;49.08;100271.67;106124;1273;22553;-70
2022/07/14 10:12:37;;;;;;;5.40;1.20;;;;;;;24.52;49.19;100266.54;106183;1273;25322;-71
2022/07/14 10:15:09;;;;;;;5.60;1.20;;;;;;;24.56;49.38;100271.33;106121;1273;22623;-70
2022/07/14 10:17:39;;;;;;;4.30;1.20;;;;;;;24.62;49.13;100269.28;106254;1273;22554;-70
2022/07/14 10:20:12;;;;;;;6.30;1.30;;;;;;;24.69;49.52;100271.80;106336;1273;23001;-70
2022/07/14 10:22:42;;;;;;;3.90;1.20;;;;;;;24.77;49.11;100269.94;106249;1273;23672;-69
2022/07/14 10:25:11;;;;;;;6.30;1.30;;;;;;;24.81;49.16;100266.23;106423;1273;26600;-70
2022/07/14 10:27:43;;;;;;;9.20;2.30;;;;;;;24.81;48.96;100267.86;105790;1273;25339;-70
2022/07/14 10:30:13;;;;;;;6.00;1.70;;;;;;;24.81;49.19;100263.18;106009;1273;22721;-70
2022/07/14 10:32:51;;;;;;;7.00;1.40;;;;;;;24.84;49.15;100264.77;106008;1273;24242;-70
2022/07/14 10:35:45;;;;;;;5.20;1.30;;;;;;;24.89;49.22;100261.73;106099;1273;22573;-70
2022/07/14 10:38:32;;;;;;;5.60;1.50;;;;;;;24.95;49.16;100267.12;106245;1273;25806;-72
2022/07/14 10:41:12;;;;;;;4.90;1.60;;;;;;;25.02;48.86;100262.46;105878;1273;26530;-70
2022/07/14 10:43:52;;;;;;;5.70;1.50;;;;;;;25.05;48.94;100263.86;105705;1273;22627;-69
2022/07/14 10:46:36;;;;;;;6.70;1.70;;;;;;;25.05;48.72;100256.13;106229;1273;22621;-69
2022/07/14 10:49:06;;;;;;;8.90;1.90;;;;;;;25.08;49.17;100249.45;106261;1273;22751;-70
2022/07/14 10:51:43;;;;;;;4.90;1.40;;;;;;;25.10;48.61;100247.73;106221;1273;24686;-69
2022/07/14 10:54:13;;;;;;;8.60;1.70;;;;;;;25.13;48.91;100257.83;106269;1273;25269;-69
2022/07/14 10:56:44;;;;;;;7.50;2.00;;;;;;;25.12;48.58;100252.77;106133;1273;22543;-69
2022/07/14 10:59:35;;;;;;;4.80;1.80;;;;;;;25.14;48.78;100254.21;106248;1273;22568;-70
2022/07/14 11:02:33;;;;;;;8.50;2.00;;;;;;;25.20;49.03;100251.08;106164;1273;22589;-70
2022/07/14 11:05:04;;;;;;;7.20;1.80;;;;;;;25.28;48.50;100244.05;106164;1273;22724;-70
2022/07/14 11:07:38;;;;;;;5.90;1.80;;;;;;;25.28;48.65;100236.33;106330;1273;23111;-69
2022/07/14 11:10:45;;;;;;;6.50;1.50;;;;;;;25.31;48.54;100232.15;106161;1273;24231;-69
2022/07/14 11:13:18;;;;;;;6.20;1.80;;;;;;;25.34;48.18;100232.42;106062;1273;22581;-69
2022/07/14 11:15:53;;;;;;;4.90;1.50;;;;;;;25.32;48.43;100232.60;106088;1273;23470;-69
2022/07/14 11:18:34;;;;;;;6.60;1.70;;;;;;;25.33;48.30;100232.09;106171;1273;24508;-69
2022/07/14 11:21:12;;;;;;;9.60;2.50;;;;;;;25.23;48.25;100231.67;106222;1273;24326;-69
2022/07/14 11:23:55;;;;;;;7.80;1.70;;;;;;;25.17;48.34;100232.33;106252;1273;24305;-69
2022/07/14 11:26:40;;;;;;;5.20;1.50;;;;;;;25.11;48.47;100222.45;106408;1273;22617;-69
2022/07/14 11:29:09;;;;;;;6.90;2.20;;;;;;;25.10;48.66;100224.71;106125;1273;24442;-69
2022/07/14 11:31:44;;;;;;;;;;;;;;;25.09;48.46;100220.11;106169;1273;22676;-69
2022/07/14 11:37:10;;;;;;;7.70;1.90;;;;;;;25.05;48.50;100216.17;106102;1273;22742;-69
2022/07/14 11:39:40;;;;;;;6.40;1.70;;;;;;;25.10;48.53;100213.44;106198;1273;22604;-69
2022/07/14 11:42:12;;;;;;;;;;;;;;;25.18;48.55;100209.77;106202;1273;22601;-69
2022/07/14 11:44:54;;;;;;;6.20;1.50;;;;;;;25.24;48.34;100205.96;106069;1273;25446;-69
2022/07/14 11:47:28;;;;;;;7.20;1.60;;;;;;;25.33;48.50;100206.34;106446;1273;25280;-70